Time;durP1;ratioP1;P1;durP2;ratioP2;P2;SDS_P1;SDS_P2;PMS_P1;PMS_P2;Temp;Humidity;BMP_temperature;BMP_pressure;BME280_temperature;BME280_humidity;BME280_pressure;Samples;Min_cycle;Max_cycle;Signal;HPM_P1;HPM_P2
2023/07/28 00:02:10;;;;;;;0.40;0.40;;;18.20;99.90;;;;;;5079363;28;20024;-83
2023/07/28 00:04:37;;;;;;;1.08;0.40;;;18.20;99.90;;;;;;5079534;28;20119;-85
2023/07/28 00:07:04;;;;;;;0.40;0.40;;;18.20;99.90;;;;;;5080943;28;20028;-81
2023/07/28 00:09:31;;;;;;;0.90;0.55;;;18.10;99.90;;;;;;5082766;28;20645;-86
2023/07/28 00:11:58;;;;;;;7.90;0.52;;;18.10;99.90;;;;;;5076677;28;20055;-83
2023/07/28 00:14:24;;;;;;;6.22;0.82;;;18.10;99.90;;;;;;5083924;28;20028;-83
2023/07/28 00:16:51;;;;;;;0.40;0.40;;;18.10;99.90;;;;;;5084010;28;20071;-83
2023/07/28 00:19:17;;;;;;;0.73;0.52;;;18.10;99.90;;;;;;5082674;28;20029;-84
2023/07/28 00:21:42;;;;;;;1.73;0.68;;;18.10;99.90;;;;;;5083847;28;20039;-83
2023/07/28 00:24:08;;;;;;;0.40;0.40;;;18.10;99.90;;;;;;5083763;28;20024;-84
2023/07/28 00:26:33;;;;;;;1.98;0.32;;;18.10;99.90;;;;;;5079836;28;20044;-82
2023/07/28 00:28:59;;;;;;;4.43;0.40;;;18.20;99.90;;;;;;5081669;28;20053;-82
2023/07/28 00:31:25;;;;;;;1.63;0.20;;;18.10;99.90;;;;;;5074855;28;20123;-82
2023/07/28 00:33:50;;;;;;;0.20;0.20;;;18.10;99.90;;;;;;5081893;28;20035;-83
2023/07/28 00:36:16;;;;;;;0.20;0.20;;;18.10;99.90;;;;;;5071155;28;20069;-83
2023/07/28 00:38:41;;;;;;;0.20;0.20;;;18.10;99.90;;;;;;5079321;28;20027;-82
2023/07/28 00:41:07;;;;;;;5.47;0.47;;;18.10;99.90;;;;;;5079585;28;20047;-82
2023/07/28 00:43:32;;;;;;;0.32;0.32;;;18.10;99.90;;;;;;5081435;28;20024;-81
2023/07/28 00:45:58;;;;;;;0.30;0.30;;;18.10;99.90;;;;;;5085030;28;20040;-81
2023/07/28 00:48:26;;;;;;;0.43;0.25;;;18.10;99.90;;;;;;5083198;28;20485;-82
2023/07/28 00:50:54;;;;;;;0.28;0.28;;;18.00;99.90;;;;;;5082380;28;20465;-83
2023/07/28 00:53:21;;;;;;;0.20;0.20;;;18.00;99.90;;;;;;5082228;28;20024;-82
2023/07/28 00:55:46;;;;;;;0.28;0.28;;;17.90;99.90;;;;;;5081399;28;20024;-81
2023/07/28 00:58:12;;;;;;;1.17;0.45;;;17.90;99.90;;;;;;5082299;28;20132;-81
2023/07/28 01:00:41;;;;;;;0.20;0.20;;;17.90;99.90;;;;;;5080174;28;20032;-84
2023/07/28 01:03:06;;;;;;;0.35;0.28;;;17.90;99.90;;;;;;5083670;28;20032;-82
2023/07/28 01:05:44;;;;;;;1.40;0.50;;;17.90;99.90;;;;;;5084515;28;20028;-83
2023/07/28 01:08:25;;;;;;;2.95;0.40;;;17.90;99.90;;;;;;5085864;28;20045;-82
2023/07/28 01:10:51;;;;;;;0.75;0.30;;;18.10;99.90;;;;;;5068482;28;20052;-82
2023/07/28 01:13:17;;;;;;;0.52;0.35;;;18.10;99.90;;;;;;5076043;28;20061;-81
2023/07/28 01:15:43;;;;;;;1.45;0.30;;;18.10;99.90;;;;;;5075277;28;20461;-82
2023/07/28 01:18:08;;;;;;;2.90;0.30;;;18.10;99.90;;;;;;5057672;28;20028;-82
2023/07/28 01:20:37;;;;;;;1.10;0.22;;;18.10;99.90;;;;;;5076433;28;20059;-80
2023/07/28 01:23:25;;;;;;;8.68;0.85;;;18.00;99.90;;;;;;5080664;28;20126;-81
2023/07/28 01:26:08;;;;;;;2.53;0.68;;;18.00;99.90;;;;;;5076580;28;20055;-81
2023/07/28 01:28:35;;;;;;;0.40;0.40;;;18.00;99.90;;;;;;5083119;28;20568;-82
2023/07/28 01:31:06;;;;;;;1.67;0.98;;;18.00;99.90;;;;;;5081839;28;20029;-82
2023/07/28 01:33:32;;;;;;;0.40;0.40;;;18.10;99.90;;;;;;5078530;28;20492;-82
2023/07/28 01:36:01;;;;;;;0.40;0.40;;;18.10;99.90;;;;;;5078552;28;20332;-83
2023/07/28 01:38:27;;;;;;;0.80;0.40;;;18.10;99.90;;;;;;5081344;28;20051;-83
2023/07/28 01:40:53;;;;;;;1.00;0.47;;;18.10;99.90;;;;;;5076900;28;20094;-82
2023/07/28 01:43:19;;;;;;;4.88;0.40;;;18.00;99.90;;;;;;5082757;28;20024;-83
2023/07/28 01:45:45;;;;;;;1.75;0.40;;;18.00;99.90;;;;;;5084079;28;20061;-82
2023/07/28 01:48:11;;;;;;;2.92;0.40;;;18.10;99.90;;;;;;5075218;28;20056;-83
2023/07/28 01:50:37;;;;;;;4.60;0.50;;;18.00;99.90;;;;;;5085846;28;20546;-83
2023/07/28 01:53:05;;;;;;;4.35;0.63;;;18.00;99.90;;;;;;5082248;28;20033;-82
2023/07/28 01:55:31;;;;;;;1.75;0.20;;;18.00;99.90;;;;;;5078664;28;20050;-81
2023/07/28 01:57:58;;;;;;;0.65;0.30;;;18.00;99.90;;;;;;5085280;28;20032;-82
2023/07/28 02:00:24;;;;;;;1.50;0.32;;;18.00;99.90;;;;;;5085428;28;20385;-83
2023/07/28 02:02:54;;;;;;;3.92;0.30;;;17.90;99.90;;;;;;5080180;28;20036;-84
2023/07/28 02:05:20;;;;;;;0.17;0.17;;;18.00;99.90;;;;;;5075678;28;20036;-82
2023/07/28 02:07:46;;;;;;;0.90;0.20;;;18.00;99.90;;;;;;5088349;28;20040;-82
2023/07/28 02:10:12;;;;;;;0.20;0.20;;;18.00;99.90;;;;;;5075029;28;20060;-83
2023/07/28 02:12:38;;;;;;;1.10;0.30;;;18.00;99.90;;;;;;5088195;28;20028;-83
2023/07/28 02:15:06;;;;;;;1.33;0.22;;;18.00;99.90;;;;;;5079890;28;20167;-82
2023/07/28 02:17:32;;;;;;;0.30;0.30;;;18.00;99.90;;;;;;5077437;28;20032;-82
2023/07/28 02:19:58;;;;;;;0.25;0.22;;;18.00;99.90;;;;;;5079591;28;20032;-80
2023/07/28 02:22:23;;;;;;;0.20;0.20;;;18.00;99.90;;;;;;5081949;28;20038;-83
2023/07/28 02:24:49;;;;;;;0.63;0.35;;;18.00;99.90;;;;;;5083283;28;20473;-82
2023/07/28 02:27:14;;;;;;;1.30;0.47;;;18.10;99.90;;;;;;5085105;28;20093;-82
2023/07/28 02:29:41;;;;;;;2.50;0.25;;;18.10;99.90;;;;;;5083950;28;20308;-86
2023/07/28 02:32:07;;;;;;;1.17;0.30;;;18.10;99.90;;;;;;5069316;28;20447;-82
2023/07/28 02:34:33;;;;;;;3.33;0.40;;;18.10;99.90;;;;;;5079058;28;20028;-85
2023/07/28 02:36:59;;;;;;;0.30;0.30;;;18.00;99.90;;;;;;5087294;28;20066;-82
2023/07/28 02:39:25;;;;;;;1.05;0.47;;;18.10;99.90;;;;;;5085031;28;20111;-83
2023/07/28 02:41:51;;;;;;;6.40;0.60;;;18.00;99.90;;;;;;5083999;28;20107;-83
2023/07/28 02:44:16;;;;;;;0.65;0.32;;;18.00;99.90;;;;;;5077225;28;20028;-83
2023/07/28 02:46:42;;;;;;;0.85;0.20;;;18.00;99.90;;;;;;5085294;28;20036;-83
2023/07/28 02:49:08;;;;;;;2.65;0.50;;;18.10;99.90;;;;;;5086942;28;20484;-82
2023/07/28 02:51:34;;;;;;;2.22;0.30;;;18.00;99.90;;;;;;5084767;28;20050;-83
2023/07/28 02:54:00;;;;;;;4.63;0.30;;;18.10;99.90;;;;;;5085117;28;20055;-82
2023/07/28 02:56:26;;;;;;;5.22;0.60;;;18.00;99.90;;;;;;5076671;28;20052;-85
2023/07/28 02:58:52;;;;;;;1.52;0.35;;;18.00;99.90;;;;;;5080709;28;20024;-84
2023/07/28 03:01:17;;;;;;;0.20;0.20;;;18.00;99.90;;;;;;5078101;28;20465;-84
2023/07/28 03:03:43;;;;;;;1.67;0.57;;;18.00;99.90;;;;;;5087093;28;20128;-83
2023/07/28 03:06:09;;;;;;;1.00;0.38;;;18.00;99.90;;;;;;5086331;28;20040;-82
2023/07/28 03:08:35;;;;;;;6.15;0.32;;;18.00;99.90;;;;;;5082503;28;20033;-82
2023/07/28 03:11:03;;;;;;;1.58;0.38;;;18.10;99.90;;;;;;5078830;28;20367;-84
2023/07/28 03:13:29;;;;;;;0.20;0.20;;;18.10;99.90;;;;;;5086788;28;20475;-82
2023/07/28 03:15:55;;;;;;;4.43;0.38;;;18.00;99.90;;;;;;5074412;28;20048;-84
2023/07/28 03:18:20;;;;;;;1.88;0.30;;;18.10;99.90;;;;;;5086043;28;20028;-83
2023/07/28 03:20:47;;;;;;;0.55;0.30;;;18.00;99.90;;;;;;5081643;28;20420;-83
2023/07/28 03:23:13;;;;;;;0.30;0.30;;;18.00;99.90;;;;;;5081884;28;20028;-83
2023/07/28 03:25:38;;;;;;;2.75;0.30;;;18.00;99.90;;;;;;5082612;28;20068;-84
2023/07/28 03:28:04;;;;;;;2.15;0.40;;;17.90;99.90;;;;;;5084421;28;20408;-83
2023/07/28 03:30:30;;;;;;;0.30;0.25;;;17.90;99.90;;;;;;5080194;28;20047;-83
2023/07/28 03:32:55;;;;;;;0.30;0.30;;;17.90;99.90;;;;;;5085100;28;20109;-82
2023/07/28 03:35:21;;;;;;;1.65;0.38;;;17.90;99.90;;;;;;5086479;28;22065;-86
2023/07/28 03:37:47;;;;;;;2.10;0.40;;;17.90;99.90;;;;;;5081009;28;20028;-82
2023/07/28 03:40:12;;;;;;;4.93;0.63;;;17.90;99.90;;;;;;5075951;28;20043;-81
2023/07/28 03:42:38;;;;;;;1.80;0.35;;;17.90;99.90;;;;;;5061909;28;20399;-82
2023/07/28 03:45:04;;;;;;;1.80;0.38;;;17.90;99.90;;;;;;5079719;28;20039;-81
2023/07/28 03:47:30;;;;;;;0.45;0.20;;;17.90;99.90;;;;;;5084091;28;20043;-82
2023/07/28 03:49:58;;;;;;;0.73;0.30;;;18.00;99.90;;;;;;5084269;28;20456;-88
2023/07/28 03:52:24;;;;;;;6.40;0.20;;;17.90;99.90;;;;;;5075951;28;20473;-81
2023/07/28 03:54:50;;;;;;;5.78;0.30;;;18.00;99.90;;;;;;5079482;28;20078;-83
2023/07/28 03:57:15;;;;;;;0.40;0.40;;;18.10;99.90;;;;;;5077454;28;20023;-83
2023/07/28 03:59:41;;;;;;;2.20;0.50;;;18.10;99.90;;;;;;5081166;28;20040;-83
2023/07/28 04:02:07;;;;;;;3.42;0.30;;;18.10;99.90;;;;;;5073386;28;20070;-83
2023/07/28 04:04:32;;;;;;;4.30;0.47;;;18.10;99.90;;;;;;5064426;28;20515;-83
2023/07/28 04:06:58;;;;;;;2.55;0.52;;;18.10;99.90;;;;;;5076341;28;20042;-81
2023/07/28 04:09:24;;;;;;;0.80;0.45;;;18.10;99.90;;;;;;5080370;28;20039;-83
2023/07/28 04:11:49;;;;;;;0.30;0.30;;;18.10;99.90;;;;;;5083671;28;20081;-84
2023/07/28 04:14:15;;;;;;;2.38;0.75;;;18.10;99.90;;;;;;5077592;28;20012;-84
2023/07/28 04:16:41;;;;;;;1.10;0.50;;;18.10;99.90;;;;;;5082075;28;20028;-83
2023/07/28 04:19:06;;;;;;;2.05;0.50;;;18.10;99.90;;;;;;5081175;28;20663;-83
2023/07/28 04:21:32;;;;;;;1.10;0.30;;;18.00;99.90;;;;;;5083461;28;20024;-84
2023/07/28 04:23:58;;;;;;;1.10;0.50;;;18.00;99.90;;;;;;5080000;28;20020;-84
2023/07/28 04:26:25;;;;;;;4.68;0.60;;;18.10;99.90;;;;;;5081610;28;20048;-84
2023/07/28 04:28:50;;;;;;;0.52;0.35;;;18.10;99.90;;;;;;5080874;28;20446;-83
2023/07/28 04:31:16;;;;;;;8.10;0.57;;;18.10;99.90;;;;;;5083077;28;20028;-83
2023/07/28 04:33:42;;;;;;;0.30;0.30;;;18.10;99.90;;;;;;5062254;28;20031;-84
2023/07/28 04:36:08;;;;;;;0.85;0.40;;;18.10;99.90;;;;;;5084057;28;20062;-84
2023/07/28 04:38:34;;;;;;;3.85;0.50;;;18.10;99.90;;;;;;5082093;28;20036;-83
2023/07/28 04:41:00;;;;;;;2.65;0.60;;;18.10;99.90;;;;;;5085508;28;20020;-83
2023/07/28 04:43:25;;;;;;;1.77;0.50;;;18.10;99.90;;;;;;5083766;28;20032;-83
2023/07/28 04:45:51;;;;;;;3.70;0.75;;;18.10;99.90;;;;;;5078848;28;20020;-84
2023/07/28 04:48:17;;;;;;;0.68;0.50;;;18.10;99.90;;;;;;5079274;28;20042;-82
2023/07/28 04:50:42;;;;;;;0.40;0.40;;;18.20;99.90;;;;;;5079163;28;20182;-83
2023/07/28 04:53:08;;;;;;;0.50;0.50;;;18.20;99.90;;;;;;5082394;28;20041;-85
2023/07/28 04:55:33;;;;;;;2.70;0.60;;;18.20;99.90;;;;;;5074114;28;20032;-84
2023/07/28 04:57:59;;;;;;;1.08;0.80;;;18.20;99.90;;;;;;5074241;28;20154;-83
2023/07/28 05:00:25;;;;;;;2.55;0.68;;;18.20;99.90;;;;;;5078910;28;20028;-83
2023/07/28 05:02:50;;;;;;;0.73;0.73;;;18.30;99.90;;;;;;5078479;28;20051;-83
2023/07/28 05:05:16;;;;;;;2.22;0.77;;;18.20;99.90;;;;;;5076012;28;20536;-84
2023/07/28 05:07:42;;;;;;;2.67;0.80;;;18.20;99.90;;;;;;5078720;28;20044;-83
2023/07/28 05:10:08;;;;;;;2.50;0.98;;;18.30;99.90;;;;;;5072631;28;20061;-81
2023/07/28 05:12:33;;;;;;;0.80;0.80;;;18.30;99.90;;;;;;5084545;28;20432;-81
2023/07/28 05:14:59;;;;;;;1.13;0.77;;;18.30;99.90;;;;;;5082067;28;20443;-84
2023/07/28 05:17:25;;;;;;;1.23;0.82;;;18.40;99.90;;;;;;5074641;28;20025;-84
2023/07/28 05:19:51;;;;;;;3.65;1.10;;;18.40;99.90;;;;;;5085208;28;20024;-81
2023/07/28 05:22:16;;;;;;;1.77;0.82;;;18.40;99.90;;;;;;5055027;28;20078;-82
2023/07/28 05:24:44;;;;;;;1.15;0.80;;;18.50;99.90;;;;;;5081970;28;20119;-82
2023/07/28 05:27:10;;;;;;;2.42;0.80;;;18.40;99.90;;;;;;5073817;28;20515;-81
2023/07/28 05:29:35;;;;;;;0.50;0.50;;;18.50;99.90;;;;;;5078004;28;20060;-82
2023/07/28 05:32:01;;;;;;;0.63;0.63;;;18.60;99.90;;;;;;5081214;28;20036;-80
2023/07/28 05:34:27;;;;;;;6.78;1.88;;;18.50;99.90;;;;;;5082503;28;20115;-80
2023/07/28 05:36:52;;;;;;;3.03;0.80;;;18.50;99.90;;;;;;5084887;28;20024;-82
2023/07/28 05:39:22;;;;;;;0.60;0.60;;;18.50;99.90;;;;;;5069070;28;20028;-84
2023/07/28 05:41:47;;;;;;;0.55;0.55;;;18.60;99.90;;;;;;5080631;28;20032;-81
2023/07/28 05:44:13;;;;;;;1.45;0.52;;;18.60;99.90;;;;;;5087049;28;20110;-81
2023/07/28 05:46:39;;;;;;;0.52;0.52;;;18.70;99.90;;;;;;5084341;28;20342;-82
2023/07/28 05:49:05;;;;;;;2.60;0.45;;;18.60;99.90;;;;;;5089048;28;20340;-83
2023/07/28 05:51:31;;;;;;;6.13;0.75;;;18.70;99.90;;;;;;5078943;28;20028;-83
2023/07/28 05:53:57;;;;;;;7.55;3.65;;;18.70;99.90;;;;;;5075963;28;20042;-82
2023/07/28 05:56:22;;;;;;;1.83;1.27;;;18.70;99.90;;;;;;5061190;28;20111;-83
2023/07/28 05:58:49;;;;;;;3.40;0.52;;;18.80;99.90;;;;;;5079439;28;20024;-83
2023/07/28 06:01:15;;;;;;;1.20;0.82;;;18.80;99.90;;;;;;5071503;28;20036;-82
2023/07/28 06:03:40;;;;;;;0.50;0.47;;;18.90;99.90;;;;;;5081307;28;20039;-82
2023/07/28 06:06:07;;;;;;;0.60;0.60;;;18.90;99.90;;;;;;5089410;28;20442;-82
2023/07/28 06:08:32;;;;;;;0.57;0.57;;;18.90;99.90;;;;;;5082407;28;20028;-81
2023/07/28 06:10:58;;;;;;;3.13;0.60;;;18.90;99.90;;;;;;5083757;28;20048;-80
2023/07/28 06:13:24;;;;;;;0.63;0.63;;;18.90;99.90;;;;;;5086776;28;20063;-80
2023/07/28 06:15:49;;;;;;;8.55;0.80;;;19.00;99.90;;;;;;5083339;28;20078;-82
2023/07/28 06:18:16;;;;;;;0.50;0.50;;;19.00;99.90;;;;;;5088432;28;20032;-81
2023/07/28 06:20:42;;;;;;;3.08;0.60;;;19.00;99.90;;;;;;5088214;28;20051;-81
2023/07/28 06:23:08;;;;;;;0.68;0.60;;;19.00;99.90;;;;;;5076628;28;20036;-83
2023/07/28 06:25:34;;;;;;;0.77;0.70;;;19.10;99.90;;;;;;5088366;28;20039;-80
2023/07/28 06:27:59;;;;;;;1.52;0.50;;;19.00;99.90;;;;;;5088004;28;20036;-82
2023/07/28 06:30:25;;;;;;;3.45;0.70;;;19.00;99.90;;;;;;5089113;28;20024;-80
2023/07/28 06:32:51;;;;;;;2.95;0.63;;;19.00;99.90;;;;;;5079768;28;20036;-82
2023/07/28 06:35:17;;;;;;;2.88;0.93;;;19.00;99.90;;;;;;5089276;28;20473;-82
2023/07/28 06:37:43;;;;;;;0.70;0.70;;;18.90;99.90;;;;;;5075957;28;20031;-81
2023/07/28 06:40:09;;;;;;;1.90;0.85;;;18.90;99.90;;;;;;5084409;28;20424;-83
2023/07/28 06:42:36;;;;;;;1.90;0.90;;;18.90;99.90;;;;;;5061113;28;20021;-82
2023/07/28 06:45:02;;;;;;;1.45;0.93;;;18.80;99.90;;;;;;5075398;28;20116;-81
2023/07/28 06:47:28;;;;;;;1.80;1.08;;;18.80;99.90;;;;;;5087817;28;20036;-82
2023/07/28 06:49:54;;;;;;;4.90;1.08;;;18.80;99.90;;;;;;5088510;28;20073;-81
2023/07/28 06:52:21;;;;;;;1.25;1.00;;;18.90;99.90;;;;;;5081487;28;20495;-80
2023/07/28 06:54:48;;;;;;;0.80;0.80;;;19.00;99.90;;;;;;5080628;28;20526;-83
2023/07/28 06:57:14;;;;;;;1.05;0.90;;;19.00;99.90;;;;;;5082392;28;20032;-82
2023/07/28 06:59:40;;;;;;;2.05;1.45;;;19.10;99.90;;;;;;5083807;28;20805;-82
2023/07/28 07:02:06;;;;;;;1.15;1.05;;;19.10;99.90;;;;;;5075031;28;20094;-85
2023/07/28 07:04:31;;;;;;;3.92;1.15;;;19.20;99.90;;;;;;5063950;28;20059;-82
2023/07/28 07:06:57;;;;;;;0.85;0.82;;;19.20;99.90;;;;;;5079052;28;20032;-80
2023/07/28 07:09:23;;;;;;;0.68;0.68;;;19.30;99.90;;;;;;5083171;28;20016;-83
2023/07/28 07:11:49;;;;;;;3.75;1.13;;;19.30;99.90;;;;;;5064766;28;20472;-81
2023/07/28 07:14:15;;;;;;;3.70;0.68;;;19.40;99.90;;;;;;5079130;28;20036;-81
2023/07/28 07:16:44;;;;;;;0.70;0.70;;;19.40;99.90;;;;;;5079821;28;20028;-85
2023/07/28 07:19:09;;;;;;;0.88;0.88;;;19.50;99.90;;;;;;5083671;28;20039;-82
2023/07/28 07:21:35;;;;;;;1.38;0.98;;;19.40;99.90;;;;;;5063548;28;20028;-82
2023/07/28 07:24:03;;;;;;;1.13;0.80;;;19.50;99.90;;;;;;5075056;28;21247;-83
2023/07/28 07:26:30;;;;;;;1.55;0.70;;;19.50;99.90;;;;;;5081855;28;20048;-84
2023/07/28 07:28:57;;;;;;;15.60;1.80;;;19.40;99.90;;;;;;5078171;28;20021;-85
2023/07/28 07:31:23;;;;;;;0.93;0.70;;;19.40;99.90;;;;;;5081852;28;20542;-83
2023/07/28 07:33:49;;;;;;;94.32;5.90;;;19.50;99.90;;;;;;5083549;28;20055;-82
2023/07/28 07:36:15;;;;;;;2.10;0.75;;;19.50;99.90;;;;;;5081314;28;20032;-81
2023/07/28 07:38:41;;;;;;;2.85;0.80;;;19.60;99.90;;;;;;5060339;28;20032;-82
2023/07/28 07:41:10;;;;;;;211.50;16.63;;;19.60;99.90;;;;;;5082667;28;20131;-84
2023/07/28 07:43:36;;;;;;;3.05;0.88;;;19.60;99.90;;;;;;5084153;28;20035;-83
2023/07/28 07:46:02;;;;;;;1.95;1.10;;;19.70;99.90;;;;;;5079024;28;20115;-80
2023/07/28 07:48:27;;;;;;;8.20;1.10;;;19.70;99.90;;;;;;5080011;28;20024;-82
2023/07/28 07:50:53;;;;;;;0.80;0.80;;;19.80;99.90;;;;;;5075852;28;20081;-84
2023/07/28 07:53:18;;;;;;;3.88;1.20;;;19.80;99.90;;;;;;5067104;28;20119;-82
2023/07/28 07:55:44;;;;;;;9.15;1.15;;;19.80;99.90;;;;;;5086570;28;20461;-78
2023/07/28 07:58:10;;;;;;;1.10;1.10;;;19.90;99.90;;;;;;5082766;28;20016;-84
2023/07/28 08:00:38;;;;;;;1.50;1.38;;;20.00;99.90;;;;;;5083559;28;20050;-82
2023/07/28 08:03:04;;;;;;;1.83;1.05;;;20.00;99.90;;;;;;5074353;28;20531;-81
2023/07/28 08:05:33;;;;;;;1.23;0.98;;;20.00;99.90;;;;;;5077717;28;20440;-83
2023/07/28 08:07:59;;;;;;;2.70;1.10;;;20.00;99.90;;;;;;5083615;28;20043;-80
2023/07/28 08:10:25;;;;;;;1.20;1.10;;;19.90;99.90;;;;;;5067975;28;20024;-82
2023/07/28 08:12:50;;;;;;;1.52;1.00;;;19.90;99.90;;;;;;5078963;28;20772;-81
2023/07/28 08:15:16;;;;;;;1.30;1.20;;;19.90;99.90;;;;;;5082087;28;20028;-81
2023/07/28 08:17:41;;;;;;;1.40;1.30;;;20.00;99.90;;;;;;5082249;28;20025;-82
2023/07/28 08:20:08;;;;;;;2.67;1.42;;;19.90;99.90;;;;;;5078260;28;20085;-82
2023/07/28 08:22:34;;;;;;;3.58;1.35;;;19.80;99.90;;;;;;5079066;28;20031;-81
2023/07/28 08:24:59;;;;;;;2.65;1.40;;;19.80;99.90;;;;;;5086457;28;20465;-82
2023/07/28 08:27:25;;;;;;;2.85;1.20;;;19.80;99.90;;;;;;5082517;28;20043;-81
2023/07/28 08:29:50;;;;;;;7.47;1.60;;;19.80;99.90;;;;;;5077850;28;20024;-84
2023/07/28 08:32:17;;;;;;;3.33;1.40;;;19.80;99.90;;;;;;5078460;28;20500;-85
2023/07/28 08:34:43;;;;;;;2.97;1.60;;;19.80;99.90;;;;;;5082427;28;20039;-81
2023/07/28 08:37:09;;;;;;;1.40;1.17;;;19.80;99.90;;;;;;5078533;28;20032;-80
2023/07/28 08:39:35;;;;;;;1.20;1.20;;;19.80;99.90;;;;;;5080369;28;20028;-82
2023/07/28 08:42:02;;;;;;;1.63;1.50;;;19.80;99.90;;;;;;5067679;28;20050;-83
2023/07/28 08:44:35;;;;;;;3.88;1.50;;;19.90;99.90;;;;;;5076753;28;20030;-82
2023/07/28 08:47:05;;;;;;;1.48;1.38;;;19.80;99.90;;;;;;5077735;28;20493;-82
2023/07/28 08:49:32;;;;;;;1.65;1.55;;;19.80;99.90;;;;;;5063667;28;20027;-80
2023/07/28 08:52:01;;;;;;;5.10;1.50;;;20.00;99.90;;;;;;5079661;28;20396;-82
2023/07/28 08:54:27;;;;;;;3.85;1.75;;;19.90;99.90;;;;;;5082231;28;20435;-81
2023/07/28 08:56:52;;;;;;;1.52;1.42;;;20.00;99.90;;;;;;5078670;28;20476;-84
2023/07/28 08:59:25;;;;;;;5.85;1.60;;;20.00;99.90;;;;;;5082176;28;20026;-80
2023/07/28 09:02:00;;;;;;;2.47;1.60;;;20.10;99.90;;;;;;5080686;28;20025;-85
2023/07/28 09:04:25;;;;;;;1.73;1.63;;;20.00;99.90;;;;;;5082840;28;20020;-82
2023/07/28 09:06:51;;;;;;;2.22;1.73;;;20.00;99.90;;;;;;5081890;28;20624;-83
2023/07/28 09:09:21;;;;;;;1.75;1.65;;;20.10;99.90;;;;;;5085974;28;20032;-82
2023/07/28 09:11:49;;;;;;;1.92;1.60;;;20.10;99.90;;;;;;5079674;28;20384;-83
2023/07/28 09:14:16;;;;;;;1.95;1.85;;;20.10;99.90;;;;;;5084954;28;20043;-81
2023/07/28 09:16:43;;;;;;;3.78;1.65;;;20.10;99.90;;;;;;5083802;28;20068;-79
2023/07/28 09:19:09;;;;;;;1.48;1.38;;;20.20;99.90;;;;;;5083757;28;20028;-82
2023/07/28 09:21:40;;;;;;;1.77;1.67;;;20.20;99.90;;;;;;5086992;28;20077;-84
2023/07/28 09:24:14;;;;;;;1.70;1.60;;;20.10;99.90;;;;;;5073532;28;20039;-82
2023/07/28 09:26:41;;;;;;;1.93;1.73;;;20.00;99.90;;;;;;5078972;28;20078;-82
2023/07/28 09:29:13;;;;;;;2.95;1.75;;;20.10;99.90;;;;;;5080379;28;20044;-82
2023/07/28 09:31:39;;;;;;;1.80;1.70;;;20.20;99.90;;;;;;5071497;28;20052;-83
2023/07/28 09:34:08;;;;;;;1.98;1.70;;;20.20;99.90;;;;;;5087221;28;20055;-82
2023/07/28 09:36:34;;;;;;;2.55;1.77;;;20.20;99.90;;;;;;5071385;28;20042;-81
2023/07/28 09:39:02;;;;;;;3.67;1.73;;;20.20;99.90;;;;;;5057292;28;20233;-81
2023/07/28 09:41:30;;;;;;;1.85;1.67;;;20.30;99.90;;;;;;5081671;28;20115;-81
2023/07/28 09:43:57;;;;;;;2.33;1.70;;;20.30;99.90;;;;;;5088891;28;20342;-84
2023/07/28 09:46:24;;;;;;;3.60;1.25;;;20.30;99.90;;;;;;5079213;28;20040;-82
2023/07/28 09:48:55;;;;;;;1.83;1.52;;;20.30;99.90;;;;;;5084421;28;20416;-83
2023/07/28 09:51:24;;;;;;;5.35;1.63;;;20.30;99.90;;;;;;5089313;28;20035;-85
2023/07/28 09:54:02;;;;;;;2.28;1.55;;;20.30;99.90;;;;;;5083841;28;20040;-81
2023/07/28 09:56:32;;;;;;;1.67;1.50;;;20.40;99.90;;;;;;5061233;28;20256;-81
2023/07/28 09:59:01;;;;;;;4.00;1.63;;;20.50;99.90;;;;;;5061935;28;20317;-81
2023/07/28 10:01:28;;;;;;;2.15;1.58;;;20.50;99.90;;;;;;5081146;28;20220;-82
2023/07/28 10:03:53;;;;;;;5.15;1.73;;;20.60;99.90;;;;;;5067427;28;20097;-81
2023/07/28 10:06:20;;;;;;;3.50;1.70;;;20.50;99.90;;;;;;5083475;28;20125;-82
2023/07/28 10:08:46;;;;;;;1.75;1.42;;;20.60;99.90;;;;;;5079800;28;20020;-83
2023/07/28 10:11:13;;;;;;;1.65;1.15;;;20.60;99.90;;;;;;5080883;28;20090;-82
2023/07/28 10:13:43;;;;;;;2.50;1.15;;;20.70;99.90;;;;;;5088512;28;20034;-81
2023/07/28 10:16:09;;;;;;;2.35;1.65;;;20.80;99.90;;;;;;5082533;28;20024;-83
2023/07/28 10:18:35;;;;;;;2.85;1.30;;;20.90;99.90;;;;;;5087372;28;20016;-81
2023/07/28 10:21:13;;;;;;;2.15;1.77;;;21.00;99.90;;;;;;5079776;28;20025;-82
2023/07/28 10:23:39;;;;;;;4.07;1.33;;;21.20;99.90;;;;;;5082258;28;20028;-82
2023/07/28 10:26:05;;;;;;;1.08;1.08;;;21.30;99.90;;;;;;5075499;28;20075;-81
2023/07/28 10:28:32;;;;;;;5.38;1.85;;;21.40;99.90;;;;;;5088833;28;20016;-81
2023/07/28 10:30:59;;;;;;;6.53;1.73;;;21.40;99.90;;;;;;5082691;28;20473;-82
2023/07/28 10:33:31;;;;;;;2.88;1.25;;;21.50;99.90;;;;;;5087267;28;20476;-80
2023/07/28 10:35:58;;;;;;;3.03;1.67;;;21.70;99.90;;;;;;5082965;28;20492;-84
2023/07/28 10:38:36;;;;;;;1.60;1.50;;;21.70;99.90;;;;;;5084862;28;20040;-85
2023/07/28 10:41:23;;;;;;;2.40;1.60;;;21.80;99.90;;;;;;5078425;28;20119;-82
2023/07/28 10:43:49;;;;;;;1.88;1.75;;;21.80;99.90;;;;;;5078354;28;20028;-80
2023/07/28 10:46:17;;;;;;;1.42;1.33;;;21.70;99.90;;;;;;5083386;28;20304;-79
2023/07/28 10:48:45;;;;;;;1.38;1.27;;;21.80;99.90;;;;;;5079062;28;20020;-80
2023/07/28 10:51:25;;;;;;;3.42;1.67;;;21.90;99.90;;;;;;5077915;28;20058;-84
2023/07/28 10:54:02;;;;;;;4.82;1.73;;;22.00;99.90;;;;;;5065779;28;20587;-83
2023/07/28 10:56:28;;;;;;;1.80;1.70;;;22.10;99.90;;;;;;5082582;28;20032;-81
2023/07/28 10:58:57;;;;;;;3.33;1.80;;;22.20;99.90;;;;;;5082322;28;20443;-81
2023/07/28 11:01:38;;;;;;;2.13;1.75;;;22.20;99.90;;;;;;5086972;28;20030;-82
2023/07/28 11:04:20;;;;;;;3.28;2.03;;;22.30;99.90;;;;;;5085223;28;20032;-79
2023/07/28 11:06:48;;;;;;;2.80;2.17;;;22.30;99.90;;;;;;5083343;28;20062;-82
2023/07/28 11:09:16;;;;;;;2.92;2.15;;;22.20;99.90;;;;;;5081679;28;20522;-81
2023/07/28 11:11:42;;;;;;;3.88;2.45;;;22.20;99.90;;;;;;5083257;28;20052;-83
2023/07/28 11:14:09;;;;;;;2.83;1.77;;;22.30;99.90;;;;;;5081974;28;20523;-83
2023/07/28 11:16:41;;;;;;;3.45;2.03;;;22.40;99.90;;;;;;5061501;28;20039;-79
2023/07/28 11:19:12;;;;;;;4.95;1.90;;;22.50;99.90;;;;;;5085538;28;20024;-83
2023/07/28 11:21:41;;;;;;;4.63;2.10;;;22.60;99.90;;;;;;5080017;28;20045;-82
2023/07/28 11:24:08;;;;;;;2.30;2.10;;;22.60;99.90;;;;;;5079801;28;20035;-81
2023/07/28 11:26:38;;;;;;;6.18;1.80;;;22.70;99.90;;;;;;5061515;28;20136;-80
2023/07/28 11:29:04;;;;;;;3.45;2.25;;;22.70;99.90;;;;;;5086594;28;20063;-81
2023/07/28 11:31:30;;;;;;;4.68;2.15;;;22.90;99.90;;;;;;5068952;28;20457;-81
2023/07/28 11:33:56;;;;;;;3.75;2.22;;;22.90;99.90;;;;;;5087960;28;20454;-82
2023/07/28 11:36:31;;;;;;;2.92;2.60;;;23.00;99.90;;;;;;5066716;28;20032;-80
2023/07/28 11:39:00;;;;;;;3.50;2.45;;;23.00;99.90;;;;;;5083157;28;20079;-80
2023/07/28 11:41:27;;;;;;;3.67;2.70;;;23.00;99.90;;;;;;5083449;28;20528;-80
2023/07/28 11:43:53;;;;;;;5.47;2.83;;;23.00;99.90;;;;;;5084925;28;20031;-82
2023/07/28 11:46:39;;;;;;;6.00;2.03;;;23.10;99.90;;;;;;5081236;28;20392;-81
2023/07/28 11:49:22;;;;;;;3.03;2.40;;;23.10;99.90;;;;;;5073533;28;20378;-81
2023/07/28 11:51:49;;;;;;;4.75;2.70;;;23.20;99.90;;;;;;5083828;28;20070;-83
2023/07/28 11:54:16;;;;;;;4.57;2.35;;;23.30;99.90;;;;;;5072231;28;20024;-81
2023/07/28 11:56:44;;;;;;;5.95;2.25;;;23.30;99.90;;;;;;5083039;28;20089;-81
2023/07/28 11:59:10;;;;;;;3.50;1.73;;;23.30;99.90;;;;;;5083643;28;20035;-82
2023/07/28 12:01:58;;;;;;;5.63;2.10;;;23.40;99.90;;;;;;5083335;28;20062;-82
2023/07/28 12:04:25;;;;;;;9.43;2.10;;;23.50;99.90;;;;;;5081775;28;20052;-80
2023/07/28 12:07:11;;;;;;;1.92;1.80;;;23.50;99.90;;;;;;5082979;28;20127;-81
2023/07/28 12:09:46;;;;;;;3.55;2.25;;;23.50;99.90;;;;;;5082250;28;20044;-82
2023/07/28 12:12:16;;;;;;;6.95;2.15;;;23.60;99.90;;;;;;5083922;28;20115;-82
2023/07/28 12:14:42;;;;;;;3.70;1.92;;;23.60;99.90;;;;;;5080387;28;20028;-80
2023/07/28 12:17:25;;;;;;;2.15;1.95;;;23.70;99.90;;;;;;5072885;28;20163;-80
2023/07/28 12:20:10;;;;;;;3.00;1.83;;;23.70;99.90;;;;;;5073708;28;20028;-81
2023/07/28 12:22:37;;;;;;;2.65;1.70;;;23.80;99.90;;;;;;5077784;28;20107;-81
2023/07/28 12:25:04;;;;;;;1.90;1.75;;;23.70;99.90;;;;;;5076387;28;20028;-82
2023/07/28 12:27:31;;;;;;;3.47;2.40;;;23.70;99.90;;;;;;5077763;28;20040;-81
2023/07/28 12:29:57;;;;;;;2.40;2.08;;;23.70;99.90;;;;;;5082059;28;20016;-79
2023/07/28 12:32:22;;;;;;;2.78;2.55;;;23.70;99.90;;;;;;5083055;28;20020;-83
2023/07/28 12:34:49;;;;;;;2.75;2.50;;;23.80;99.90;;;;;;5082527;28;20032;-82
2023/07/28 12:37:15;;;;;;;2.20;1.92;;;23.90;99.90;;;;;;5082198;28;20449;-81
2023/07/28 12:39:41;;;;;;;3.15;2.30;;;23.90;99.90;;;;;;5082910;28;20024;-80
2023/07/28 12:42:10;;;;;;;2.45;2.17;;;24.00;99.90;;;;;;5084853;28;20357;-83
2023/07/28 12:44:37;;;;;;;2.42;1.92;;;24.10;99.90;;;;;;5089025;28;20368;-82
2023/07/28 12:47:03;;;;;;;3.10;2.22;;;24.20;99.90;;;;;;5086125;28;20040;-80